sensor_id;sensor_type;location;lat;lon;timestamp;noise_LAeq;noise_LA_min;noise_LA_max;noise_LA01;noise_LA95
66335;Laerm;53138;51.496;6.410;2024-03-22T00:00:01;34.21;32.23;37.25;;
66335;Laerm;53138;51.496;6.410;2024-03-22T00:00:12;34.18;32.10;36.90;;
66335;Laerm;53138;51.496;6.410;2024-03-22T00:00:22;34.51;32.43;39.19;;
66335;Laerm;53138;51.496;6.410;2024-03-22T00:00:33;34.38;32.23;37.78;;
66335;Laerm;53138;51.496;6.410;2024-03-22T00:00:43;33.82;31.92;35.98;;
66335;Laerm;53138;51.496;6.410;2024-03-22T00:00:53;33.84;31.79;36.79;;
66335;Laerm;53138;51.496;6.410;2024-03-22T00:01:03;33.91;32.19;36.12;;
66335;Laerm;53138;51.496;6.410;2024-03-22T00:01:14;34.15;31.90;36.83;;
66335;Laerm;53138;51.496;6.410;2024-03-22T00:01:24;34.59;32.63;37.45;;
66335;Laerm;53138;51.496;6.410;2024-03-22T00:01:34;34.23;32.49;36.04;;
66335;Laerm;53138;51.496;6.410;2024-03-22T00:01:45;34.34;32.17;37.28;;
66335;Laerm;53138;51.496;6.410;2024-03-22T00:01:55;34.10;31.65;37.12;;
66335;Laerm;53138;51.496;6.410;2024-03-22T00:02:06;34.38;32.40;37.21;;
66335;Laerm;53138;51.496;6.410;2024-03-22T00:02:17;34.40;32.30;36.80;;
66335;Laerm;53138;51.496;6.410;2024-03-22T00:02:27;33.75;31.14;38.14;;
66335;Laerm;53138;51.496;6.410;2024-03-22T00:02:38;33.20;31.40;35.24;;
66335;Laerm;53138;51.496;6.410;2024-03-22T00:02:48;33.25;31.22;36.02;;
66335;Laerm;53138;51.496;6.410;2024-03-22T00:02:58;32.97;31.25;34.85;;
66335;Laerm;53138;51.496;6.410;2024-03-22T00:03:08;32.95;31.17;34.51;;
66335;Laerm;53138;51.496;6.410;2024-03-22T00:03:19;33.22;31.32;35.32;;
66335;Laerm;53138;51.496;6.410;2024-03-22T00:03:30;33.36;31.32;40.23;;
66335;Laerm;53138;51.496;6.410;2024-03-22T00:03:41;33.50;31.77;45.26;;
66335;Laerm;53138;51.496;6.410;2024-03-22T00:03:51;32.89;31.44;34.28;;
66335;Laerm;53138;51.496;6.410;2024-03-22T00:04:02;32.79;31.26;35.03;;
66335;Laerm;53138;51.496;6.410;2024-03-22T00:04:12;33.41;31.22;39.28;;
66335;Laerm;53138;51.496;6.410;2024-03-22T00:04:23;33.22;31.55;34.77;;
66335;Laerm;53138;51.496;6.410;2024-03-22T00:04:33;32.88;31.31;35.08;;
66335;Laerm;53138;51.496;6.410;2024-03-22T00:04:43;33.00;31.39;35.44;;
66335;Laerm;53138;51.496;6.410;2024-03-22T00:04:54;32.86;31.32;34.30;;
66335;Laerm;53138;51.496;6.410;2024-03-22T00:05:04;32.82;31.12;35.99;;
66335;Laerm;53138;51.496;6.410;2024-03-22T00:05:14;33.06;31.21;35.19;;
66335;Laerm;53138;51.496;6.410;2024-03-22T00:05:26;33.14;31.29;35.28;;
66335;Laerm;53138;51.496;6.410;2024-03-22T00:05:36;34.66;31.81;49.98;;
66335;Laerm;53138;51.496;6.410;2024-03-22T00:05:47;33.29;31.61;37.67;;
66335;Laerm;53138;51.496;6.410;2024-03-22T00:05:57;33.39;31.76;35.32;;
66335;Laerm;53138;51.496;6.410;2024-03-22T00:06:08;34.06;31.88;44.40;;
66335;Laerm;53138;51.496;6.410;2024-03-22T00:06:18;33.51;31.71;35.47;;
66335;Laerm;53138;51.496;6.410;2024-03-22T00:06:28;33.49;31.65;35.83;;
66335;Laerm;53138;51.496;6.410;2024-03-22T00:06:39;33.37;31.84;35.10;;
66335;Laerm;53138;51.496;6.410;2024-03-22T00:06:49;33.41;31.93;35.26;;
66335;Laerm;53138;51.496;6.410;2024-03-22T00:07:00;33.10;31.00;35.19;;
66335;Laerm;53138;51.496;6.410;2024-03-22T00:07:10;33.42;31.27;44.55;;
66335;Laerm;53138;51.496;6.410;2024-03-22T00:07:21;33.18;31.67;35.31;;
66335;Laerm;53138;51.496;6.410;2024-03-22T00:07:31;33.74;31.74;41.34;;
66335;Laerm;53138;51.496;6.410;2024-03-22T00:07:41;33.38;31.40;35.74;;
66335;Laerm;53138;51.496;6.410;2024-03-22T00:07:51;33.67;31.98;38.69;;
66335;Laerm;53138;51.496;6.410;2024-03-22T00:08:02;33.69;31.09;45.42;;
66335;Laerm;53138;51.496;6.410;2024-03-22T00:08:12;34.25;31.52;47.24;;
66335;Laerm;53138;51.496;6.410;2024-03-22T00:08:22;33.41;31.54;34.89;;
66335;Laerm;53138;51.496;6.410;2024-03-22T00:08:33;33.29;31.31;35.01;;
66335;Laerm;53138;51.496;6.410;2024-03-22T00:08:43;33.45;31.51;35.21;;
66335;Laerm;53138;51.496;6.410;2024-03-22T00:08:53;33.90;32.21;36.69;;
66335;Laerm;53138;51.496;6.410;2024-03-22T00:09:03;33.46;31.76;35.86;;
66335;Laerm;53138;51.496;6.410;2024-03-22T00:09:14;33.16;31.61;34.68;;
66335;Laerm;53138;51.496;6.410;2024-03-22T00:09:25;33.28;31.64;34.70;;
66335;Laerm;53138;51.496;6.410;2024-03-22T00:09:35;33.39;31.80;35.09;;
66335;Laerm;53138;51.496;6.410;2024-03-22T00:09:45;33.48;31.58;35.31;;
66335;Laerm;53138;51.496;6.410;2024-03-22T00:09:56;33.65;31.59;36.04;;
66335;Laerm;53138;51.496;6.410;2024-03-22T00:10:06;32.99;31.45;35.06;;
66335;Laerm;53138;51.496;6.410;2024-03-22T00:10:17;32.92;31.29;34.45;;
66335;Laerm;53138;51.496;6.410;2024-03-22T00:10:27;32.86;31.14;34.53;;
66335;Laerm;53138;51.496;6.410;2024-03-22T00:10:37;32.91;31.12;34.27;;
66335;Laerm;53138;51.496;6.410;2024-03-22T00:10:48;33.36;31.48;40.58;;
66335;Laerm;53138;51.496;6.410;2024-03-22T00:10:58;33.47;31.54;36.02;;
66335;Laerm;53138;51.496;6.410;2024-03-22T00:11:09;33.79;31.65;35.71;;
66335;Laerm;53138;51.496;6.410;2024-03-22T00:11:19;33.60;31.86;36.30;;
66335;Laerm;53138;51.496;6.410;2024-03-22T00:11:29;33.26;31.84;35.09;;
66335;Laerm;53138;51.496;6.410;2024-03-22T00:11:40;33.47;32.10;35.05;;
66335;Laerm;53138;51.496;6.410;2024-03-22T00:11:50;33.13;31.39;35.01;;
66335;Laerm;53138;51.496;6.410;2024-03-22T00:12:01;33.14;31.51;35.15;;
66335;Laerm;53138;51.496;6.410;2024-03-22T00:12:11;33.48;31.78;35.04;;
66335;Laerm;53138;51.496;6.410;2024-03-22T00:12:21;33.41;31.81;35.14;;
66335;Laerm;53138;51.496;6.410;2024-03-22T00:12:32;33.36;31.38;34.91;;
66335;Laerm;53138;51.496;6.410;2024-03-22T00:12:42;37.89;33.15;43.47;;
66335;Laerm;53138;51.496;6.410;2024-03-22T00:12:52;34.80;32.31;37.58;;
66335;Laerm;53138;51.496;6.410;2024-03-22T00:13:02;33.78;32.04;35.44;;
66335;Laerm;53138;51.496;6.410;2024-03-22T00:13:13;34.00;32.58;35.71;;
66335;Laerm;53138;51.496;6.410;2024-03-22T00:13:23;35.54;32.92;39.75;;
66335;Laerm;53138;51.496;6.410;2024-03-22T00:13:33;37.53;32.70;42.73;;
66335;Laerm;53138;51.496;6.410;2024-03-22T00:13:43;34.56;32.42;36.72;;
66335;Laerm;53138;51.496;6.410;2024-03-22T00:13:54;34.37;32.48;36.61;;
66335;Laerm;53138;51.496;6.410;2024-03-22T00:14:04;33.71;31.68;36.20;;
66335;Laerm;53138;51.496;6.410;2024-03-22T00:14:14;33.36;31.83;34.63;;
66335;Laerm;53138;51.496;6.410;2024-03-22T00:14:24;33.19;31.83;34.85;;
66335;Laerm;53138;51.496;6.410;2024-03-22T00:14:35;33.16;31.76;34.52;;
66335;Laerm;53138;51.496;6.410;2024-03-22T00:14:45;33.41;31.49;35.38;;
66335;Laerm;53138;51.496;6.410;2024-03-22T00:14:55;33.28;31.66;35.30;;
66335;Laerm;53138;51.496;6.410;2024-03-22T00:15:06;33.22;31.44;34.99;;
66335;Laerm;53138;51.496;6.410;2024-03-22T00:15:16;33.15;31.08;34.72;;
66335;Laerm;53138;51.496;6.410;2024-03-22T00:15:26;33.35;31.73;35.58;;
66335;Laerm;53138;51.496;6.410;2024-03-22T00:15:37;33.45;31.75;35.48;;
66335;Laerm;53138;51.496;6.410;2024-03-22T00:15:47;33.58;31.72;38.44;;
66335;Laerm;53138;51.496;6.410;2024-03-22T00:15:57;33.13;31.60;35.26;;
66335;Laerm;53138;51.496;6.410;2024-03-22T00:16:07;33.33;31.57;34.80;;
66335;Laerm;53138;51.496;6.410;2024-03-22T00:16:18;33.70;31.91;45.04;;
66335;Laerm;53138;51.496;6.410;2024-03-22T00:16:28;33.55;31.45;37.82;;
66335;Laerm;53138;51.496;6.410;2024-03-22T00:16:38;33.37;31.28;35.61;;
66335;Laerm;53138;51.496;6.410;2024-03-22T00:16:49;33.27;31.74;34.76;;
66335;Laerm;53138;51.496;6.410;2024-03-22T00:16:59;33.34;31.66;35.20;;
66335;Laerm;53138;51.496;6.410;2024-03-22T00:17:09;33.43;31.86;35.27;;
66335;Laerm;53138;51.496;6.410;2024-03-22T00:17:20;33.64;31.46;38.49;;
66335;Laerm;53138;51.496;6.410;2024-03-22T00:17:30;33.48;32.00;37.52;;
66335;Laerm;53138;51.496;6.410;2024-03-22T00:17:42;33.30;31.75;34.92;;
66335;Laerm;53138;51.496;6.410;2024-03-22T00:17:52;33.39;31.60;35.15;;
66335;Laerm;53138;51.496;6.410;2024-03-22T00:18:03;33.18;30.91;35.05;;
66335;Laerm;53138;51.496;6.410;2024-03-22T00:18:13;33.13;31.48;34.96;;
66335;Laerm;53138;51.496;6.410;2024-03-22T00:18:23;33.09;31.64;34.62;;
66335;Laerm;53138;51.496;6.410;2024-03-22T00:18:34;34.05;31.58;44.67;;
66335;Laerm;53138;51.496;6.410;2024-03-22T00:18:44;33.47;31.70;35.54;;
66335;Laerm;53138;51.496;6.410;2024-03-22T00:18:54;33.53;31.97;35.67;;
66335;Laerm;53138;51.496;6.410;2024-03-22T00:19:04;33.54;31.80;35.64;;
66335;Laerm;53138;51.496;6.410;2024-03-22T00:19:15;33.64;31.78;36.09;;
66335;Laerm;53138;51.496;6.410;2024-03-22T00:19:25;33.63;32.02;35.52;;
66335;Laerm;53138;51.496;6.410;2024-03-22T00:19:35;33.82;32.23;36.66;;
66335;Laerm;53138;51.496;6.410;2024-03-22T00:19:45;33.90;32.17;35.82;;
66335;Laerm;53138;51.496;6.410;2024-03-22T00:19:56;34.31;32.52;37.23;;
66335;Laerm;53138;51.496;6.410;2024-03-22T00:20:06;36.80;33.30;43.21;;
66335;Laerm;53138;51.496;6.410;2024-03-22T00:20:16;38.29;33.91;42.59;;
66335;Laerm;53138;51.496;6.410;2024-03-22T00:20:27;39.82;35.28;45.63;;
66335;Laerm;53138;51.496;6.410;2024-03-22T00:20:37;42.99;35.56;50.11;;
66335;Laerm;53138;51.496;6.410;2024-03-22T00:20:47;34.39;31.64;37.59;;
66335;Laerm;53138;51.496;6.410;2024-03-22T00:20:57;33.92;31.91;38.89;;
66335;Laerm;53138;51.496;6.410;2024-03-22T00:21:08;33.93;31.99;48.60;;
66335;Laerm;53138;51.496;6.410;2024-03-22T00:21:18;33.67;32.16;35.92;;
66335;Laerm;53138;51.496;6.410;2024-03-22T00:21:28;33.39;31.67;36.05;;
66335;Laerm;53138;51.496;6.410;2024-03-22T00:21:39;33.26;31.46;34.91;;
66335;Laerm;53138;51.496;6.410;2024-03-22T00:21:50;33.21;31.41;35.23;;
66335;Laerm;53138;51.496;6.410;2024-03-22T00:22:00;33.17;31.64;34.75;;
66335;Laerm;53138;51.496;6.410;2024-03-22T00:22:10;33.23;31.32;35.79;;
66335;Laerm;53138;51.496;6.410;2024-03-22T00:22:20;33.37;31.90;35.03;;
66335;Laerm;53138;51.496;6.410;2024-03-22T00:22:31;33.60;31.76;35.28;;
66335;Laerm;53138;51.496;6.410;2024-03-22T00:22:41;33.66;31.90;35.90;;
66335;Laerm;53138;51.496;6.410;2024-03-22T00:22:51;33.72;31.97;35.42;;
66335;Laerm;53138;51.496;6.410;2024-03-22T00:23:01;34.42;32.26;37.58;;
66335;Laerm;53138;51.496;6.410;2024-03-22T00:23:12;34.42;32.18;36.72;;
66335;Laerm;53138;51.496;6.410;2024-03-22T00:23:22;34.44;32.26;36.91;;
66335;Laerm;53138;51.496;6.410;2024-03-22T00:23:32;34.62;32.60;37.71;;
66335;Laerm;53138;51.496;6.410;2024-03-22T00:23:45;34.64;32.10;42.29;;
66335;Laerm;53138;51.496;6.410;2024-03-22T00:23:56;34.44;32.50;36.80;;
66335;Laerm;53138;51.496;6.410;2024-03-22T00:24:06;34.55;32.67;36.56;;
66335;Laerm;53138;51.496;6.410;2024-03-22T00:24:16;34.27;32.46;36.53;;
66335;Laerm;53138;51.496;6.410;2024-03-22T00:24:26;34.26;32.50;36.65;;
66335;Laerm;53138;51.496;6.410;2024-03-22T00:24:37;34.41;32.04;36.61;;
66335;Laerm;53138;51.496;6.410;2024-03-22T00:24:47;34.38;32.32;37.03;;
66335;Laerm;53138;51.496;6.410;2024-03-22T00:24:57;34.50;32.02;37.42;;
66335;Laerm;53138;51.496;6.410;2024-03-22T00:25:08;34.46;32.56;36.37;;
66335;Laerm;53138;51.496;6.410;2024-03-22T00:25:18;34.20;32.48;37.47;;
66335;Laerm;53138;51.496;6.410;2024-03-22T00:25:28;34.25;32.29;36.26;;
66335;Laerm;53138;51.496;6.410;2024-03-22T00:25:38;34.44;32.36;36.76;;
66335;Laerm;53138;51.496;6.410;2024-03-22T00:25:49;34.74;32.79;36.80;;
66335;Laerm;53138;51.496;6.410;2024-03-22T00:25:59;35.12;32.99;36.96;;
66335;Laerm;53138;51.496;6.410;2024-03-22T00:26:09;34.56;32.67;36.73;;
66335;Laerm;53138;51.496;6.410;2024-03-22T00:26:19;34.47;32.60;37.15;;
66335;Laerm;53138;51.496;6.410;2024-03-22T00:26:30;34.36;32.19;36.67;;
66335;Laerm;53138;51.496;6.410;2024-03-22T00:26:40;34.58;32.36;36.69;;
66335;Laerm;53138;51.496;6.410;2024-03-22T00:26:50;34.82;32.90;37.23;;
66335;Laerm;53138;51.496;6.410;2024-03-22T00:27:00;35.53;33.36;37.91;;
66335;Laerm;53138;51.496;6.410;2024-03-22T00:27:11;37.68;33.65;42.52;;
66335;Laerm;53138;51.496;6.410;2024-03-22T00:27:22;41.67;34.73;49.53;;
66335;Laerm;53138;51.496;6.410;2024-03-22T00:27:32;34.21;32.28;36.73;;
66335;Laerm;53138;51.496;6.410;2024-03-22T00:27:43;34.02;32.02;39.83;;
66335;Laerm;53138;51.496;6.410;2024-03-22T00:27:54;33.96;32.35;37.37;;
66335;Laerm;53138;51.496;6.410;2024-03-22T00:28:05;33.51;32.28;35.27;;
66335;Laerm;53138;51.496;6.410;2024-03-22T00:28:15;36.28;32.44;44.31;;
66335;Laerm;53138;51.496;6.410;2024-03-22T00:28:25;34.97;32.26;43.74;;
66335;Laerm;53138;51.496;6.410;2024-03-22T00:28:35;33.76;32.31;35.54;;
66335;Laerm;53138;51.496;6.410;2024-03-22T00:28:46;33.79;32.03;36.93;;
66335;Laerm;53138;51.496;6.410;2024-03-22T00:28:56;33.43;31.76;34.98;;
66335;Laerm;53138;51.496;6.410;2024-03-22T00:29:08;33.32;31.84;35.07;;
66335;Laerm;53138;51.496;6.410;2024-03-22T00:29:18;33.26;31.75;35.71;;
66335;Laerm;53138;51.496;6.410;2024-03-22T00:29:29;33.09;31.26;34.85;;
66335;Laerm;53138;51.496;6.410;2024-03-22T00:29:39;33.49;31.96;35.57;;
66335;Laerm;53138;51.496;6.410;2024-03-22T00:29:50;33.59;32.02;35.67;;
66335;Laerm;53138;51.496;6.410;2024-03-22T00:30:00;33.34;31.53;34.77;;
66335;Laerm;53138;51.496;6.410;2024-03-22T00:30:11;33.53;31.93;35.29;;
66335;Laerm;53138;51.496;6.410;2024-03-22T00:30:21;33.69;32.00;35.34;;
66335;Laerm;53138;51.496;6.410;2024-03-22T00:30:32;33.28;31.44;34.84;;
66335;Laerm;53138;51.496;6.410;2024-03-22T00:30:42;33.78;32.29;35.98;;
66335;Laerm;53138;51.496;6.410;2024-03-22T00:30:52;33.74;32.23;35.09;;
66335;Laerm;53138;51.496;6.410;2024-03-22T00:31:02;33.34;31.60;35.54;;
66335;Laerm;53138;51.496;6.410;2024-03-22T00:31:13;33.48;31.47;35.05;;
66335;Laerm;53138;51.496;6.410;2024-03-22T00:31:23;33.64;31.79;35.37;;
66335;Laerm;53138;51.496;6.410;2024-03-22T00:31:33;33.61;31.95;35.74;;
66335;Laerm;53138;51.496;6.410;2024-03-22T00:31:44;33.71;32.16;35.07;;
66335;Laerm;53138;51.496;6.410;2024-03-22T00:31:54;33.72;31.80;35.51;;
66335;Laerm;53138;51.496;6.410;2024-03-22T00:32:04;33.45;31.12;36.03;;
66335;Laerm;53138;51.496;6.410;2024-03-22T00:32:15;33.22;31.67;34.85;;
66335;Laerm;53138;51.496;6.410;2024-03-22T00:32:25;33.48;31.92;35.07;;
66335;Laerm;53138;51.496;6.410;2024-03-22T00:32:36;33.74;32.03;35.66;;
66335;Laerm;53138;51.496;6.410;2024-03-22T00:32:46;33.58;31.81;35.27;;
66335;Laerm;53138;51.496;6.410;2024-03-22T00:32:57;33.33;31.33;35.00;;
66335;Laerm;53138;51.496;6.410;2024-03-22T00:33:07;33.22;31.44;35.18;;
66335;Laerm;53138;51.496;6.410;2024-03-22T00:33:17;33.13;31.43;34.73;;
66335;Laerm;53138;51.496;6.410;2024-03-22T00:33:28;33.36;31.33;35.97;;
66335;Laerm;53138;51.496;6.410;2024-03-22T00:33:38;33.21;31.31;35.46;;
66335;Laerm;53138;51.496;6.410;2024-03-22T00:33:49;33.44;31.67;35.36;;
66335;Laerm;53138;51.496;6.410;2024-03-22T00:34:00;33.38;31.69;35.88;;
66335;Laerm;53138;51.496;6.410;2024-03-22T00:34:10;33.39;31.98;34.96;;
66335;Laerm;53138;51.496;6.410;2024-03-22T00:34:20;33.24;31.80;34.94;;
66335;Laerm;53138;51.496;6.410;2024-03-22T00:34:30;33.33;31.74;35.44;;
66335;Laerm;53138;51.496;6.410;2024-03-22T00:34:41;33.18;31.55;34.87;;
66335;Laerm;53138;51.496;6.410;2024-03-22T00:34:51;33.22;31.48;34.64;;
66335;Laerm;53138;51.496;6.410;2024-03-22T00:35:02;33.32;31.82;35.12;;
66335;Laerm;53138;51.496;6.410;2024-03-22T00:35:13;33.66;31.73;36.01;;
66335;Laerm;53138;51.496;6.410;2024-03-22T00:35:23;33.48;31.78;35.23;;
66335;Laerm;53138;51.496;6.410;2024-03-22T00:35:33;33.29;31.61;34.88;;
66335;Laerm;53138;51.496;6.410;2024-03-22T00:35:43;33.24;31.66;35.14;;
66335;Laerm;53138;51.496;6.410;2024-03-22T00:35:54;33.17;31.53;34.98;;
66335;Laerm;53138;51.496;6.410;2024-03-22T00:36:04;33.36;31.58;35.10;;
66335;Laerm;53138;51.496;6.410;2024-03-22T00:36:15;33.13;31.82;35.46;;
66335;Laerm;53138;51.496;6.410;2024-03-22T00:36:25;33.15;31.78;34.95;;
66335;Laerm;53138;51.496;6.410;2024-03-22T00:36:35;33.27;31.50;34.75;;
66335;Laerm;53138;51.496;6.410;2024-03-22T00:36:45;33.49;31.61;41.41;;
66335;Laerm;53138;51.496;6.410;2024-03-22T00:36:56;33.69;31.54;43.97;;
66335;Laerm;53138;51.496;6.410;2024-03-22T00:37:06;33.26;31.64;35.11;;
66335;Laerm;53138;51.496;6.410;2024-03-22T00:37:16;33.45;31.69;35.27;;
66335;Laerm;53138;51.496;6.410;2024-03-22T00:37:27;33.64;31.59;39.57;;
66335;Laerm;53138;51.496;6.410;2024-03-22T00:37:38;33.40;31.68;35.72;;
66335;Laerm;53138;51.496;6.410;2024-03-22T00:37:48;33.37;31.86;34.92;;
66335;Laerm;53138;51.496;6.410;2024-03-22T00:37:59;33.99;31.85;44.12;;
66335;Laerm;53138;51.496;6.410;2024-03-22T00:38:09;33.62;31.80;35.69;;
66335;Laerm;53138;51.496;6.410;2024-03-22T00:38:19;33.55;31.70;35.00;;
66335;Laerm;53138;51.496;6.410;2024-03-22T00:38:29;33.54;31.78;34.88;;
66335;Laerm;53138;51.496;6.410;2024-03-22T00:38:40;33.45;32.17;35.16;;
66335;Laerm;53138;51.496;6.410;2024-03-22T00:38:50;33.83;32.33;37.04;;
66335;Laerm;53138;51.496;6.410;2024-03-22T00:39:00;33.56;31.59;37.35;;
66335;Laerm;53138;51.496;6.410;2024-03-22T00:39:10;33.30;31.68;34.89;;
66335;Laerm;53138;51.496;6.410;2024-03-22T00:39:21;33.64;32.01;35.54;;
66335;Laerm;53138;51.496;6.410;2024-03-22T00:39:31;33.48;31.82;35.06;;
66335;Laerm;53138;51.496;6.410;2024-03-22T00:39:41;33.61;31.96;35.51;;
66335;Laerm;53138;51.496;6.410;2024-03-22T00:39:53;33.65;32.03;35.43;;
66335;Laerm;53138;51.496;6.410;2024-03-22T00:40:03;33.62;32.13;35.93;;
66335;Laerm;53138;51.496;6.410;2024-03-22T00:40:14;33.83;32.11;36.19;;
66335;Laerm;53138;51.496;6.410;2024-03-22T00:40:24;33.80;32.14;35.26;;
66335;Laerm;53138;51.496;6.410;2024-03-22T00:40:35;33.69;32.00;35.44;;
66335;Laerm;53138;51.496;6.410;2024-03-22T00:40:45;33.63;31.66;35.25;;
66335;Laerm;53138;51.496;6.410;2024-03-22T00:40:55;33.69;31.78;35.61;;
66335;Laerm;53138;51.496;6.410;2024-03-22T00:41:06;34.59;32.15;37.73;;
66335;Laerm;53138;51.496;6.410;2024-03-22T00:41:16;38.47;34.41;43.71;;
66335;Laerm;53138;51.496;6.410;2024-03-22T00:41:27;35.37;33.05;37.97;;
66335;Laerm;53138;51.496;6.410;2024-03-22T00:41:37;34.32;32.63;39.80;;
66335;Laerm;53138;51.496;6.410;2024-03-22T00:41:47;34.22;32.54;35.88;;
66335;Laerm;53138;51.496;6.410;2024-03-22T00:41:57;34.30;32.19;39.04;;
66335;Laerm;53138;51.496;6.410;2024-03-22T00:42:08;33.91;32.15;35.62;;
66335;Laerm;53138;51.496;6.410;2024-03-22T00:42:18;34.29;32.77;36.48;;
66335;Laerm;53138;51.496;6.410;2024-03-22T00:42:28;33.73;32.19;35.24;;
66335;Laerm;53138;51.496;6.410;2024-03-22T00:42:38;33.71;32.06;35.22;;
66335;Laerm;53138;51.496;6.410;2024-03-22T00:42:49;33.51;31.18;35.14;;
66335;Laerm;53138;51.496;6.410;2024-03-22T00:42:59;33.55;31.54;35.57;;
66335;Laerm;53138;51.496;6.410;2024-03-22T00:43:10;33.29;31.66;34.84;;
66335;Laerm;53138;51.496;6.410;2024-03-22T00:43:20;33.61;31.85;35.28;;
66335;Laerm;53138;51.496;6.410;2024-03-22T00:43:31;33.57;32.12;35.12;;
66335;Laerm;53138;51.496;6.410;2024-03-22T00:43:41;33.57;32.06;35.16;;
66335;Laerm;53138;51.496;6.410;2024-03-22T00:43:51;33.43;31.77;35.06;;
66335;Laerm;53138;51.496;6.410;2024-03-22T00:44:02;33.38;31.99;35.01;;
66335;Laerm;53138;51.496;6.410;2024-03-22T00:44:12;33.46;31.73;35.13;;
66335;Laerm;53138;51.496;6.410;2024-03-22T00:44:22;33.47;31.71;34.89;;
66335;Laerm;53138;51.496;6.410;2024-03-22T00:44:33;33.46;31.64;35.27;;
66335;Laerm;53138;51.496;6.410;2024-03-22T00:44:43;33.47;31.56;35.07;;
66335;Laerm;53138;51.496;6.410;2024-03-22T00:44:53;33.58;32.09;36.20;;
66335;Laerm;53138;51.496;6.410;2024-03-22T00:45:05;33.66;32.42;35.21;;
66335;Laerm;53138;51.496;6.410;2024-03-22T00:45:15;33.53;32.04;35.69;;
66335;Laerm;53138;51.496;6.410;2024-03-22T00:45:26;33.70;31.94;37.68;;
66335;Laerm;53138;51.496;6.410;2024-03-22T00:45:36;33.42;31.58;35.14;;
66335;Laerm;53138;51.496;6.410;2024-03-22T00:45:46;33.44;31.85;35.65;;
66335;Laerm;53138;51.496;6.410;2024-03-22T00:45:57;33.53;32.18;35.22;;
66335;Laerm;53138;51.496;6.410;2024-03-22T00:46:08;33.60;31.82;35.81;;
66335;Laerm;53138;51.496;6.410;2024-03-22T00:46:18;34.02;32.23;35.69;;
66335;Laerm;53138;51.496;6.410;2024-03-22T00:46:29;36.18;33.42;42.10;;
66335;Laerm;53138;51.496;6.410;2024-03-22T00:46:39;38.58;34.93;43.94;;
66335;Laerm;53138;51.496;6.410;2024-03-22T00:46:49;44.10;37.15;53.72;;
66335;Laerm;53138;51.496;6.410;2024-03-22T00:46:59;36.11;33.27;41.36;;
66335;Laerm;53138;51.496;6.410;2024-03-22T00:47:12;39.54;35.01;45.29;;
66335;Laerm;53138;51.496;6.410;2024-03-22T00:47:23;36.08;33.05;39.84;;
66335;Laerm;53138;51.496;6.410;2024-03-22T00:47:33;35.04;32.65;38.38;;
66335;Laerm;53138;51.496;6.410;2024-03-22T00:47:43;35.52;32.81;38.18;;
66335;Laerm;53138;51.496;6.410;2024-03-22T00:47:54;35.40;33.45;37.82;;
66335;Laerm;53138;51.496;6.410;2024-03-22T00:48:04;34.68;32.84;36.86;;
66335;Laerm;53138;51.496;6.410;2024-03-22T00:48:15;34.50;32.47;38.04;;
66335;Laerm;53138;51.496;6.410;2024-03-22T00:48:25;34.30;32.22;36.85;;
66335;Laerm;53138;51.496;6.410;2024-03-22T00:48:36;34.63;32.75;37.38;;
66335;Laerm;53138;51.496;6.410;2024-03-22T00:48:46;34.54;32.59;37.07;;
66335;Laerm;53138;51.496;6.410;2024-03-22T00:48:56;34.63;32.81;36.89;;
66335;Laerm;53138;51.496;6.410;2024-03-22T00:49:08;34.61;32.84;37.09;;
66335;Laerm;53138;51.496;6.410;2024-03-22T00:49:18;34.53;32.07;36.76;;
66335;Laerm;53138;51.496;6.410;2024-03-22T00:49:29;34.51;32.13;36.52;;
66335;Laerm;53138;51.496;6.410;2024-03-22T00:49:39;34.50;32.39;36.84;;
66335;Laerm;53138;51.496;6.410;2024-03-22T00:49:50;34.45;32.53;36.88;;
66335;Laerm;53138;51.496;6.410;2024-03-22T00:50:00;34.77;32.63;44.46;;
66335;Laerm;53138;51.496;6.410;2024-03-22T00:50:11;34.45;32.69;37.01;;
66335;Laerm;53138;51.496;6.410;2024-03-22T00:50:22;34.46;32.41;36.73;;
66335;Laerm;53138;51.496;6.410;2024-03-22T00:50:33;34.58;32.79;36.84;;
66335;Laerm;53138;51.496;6.410;2024-03-22T00:50:43;34.37;32.40;36.96;;
66335;Laerm;53138;51.496;6.410;2024-03-22T00:50:53;34.72;32.72;37.12;;
66335;Laerm;53138;51.496;6.410;2024-03-22T00:51:04;34.77;32.66;36.80;;
66335;Laerm;53138;51.496;6.410;2024-03-22T00:51:14;34.74;32.55;37.50;;
66335;Laerm;53138;51.496;6.410;2024-03-22T00:51:27;36.98;33.81;40.75;;
66335;Laerm;53138;51.496;6.410;2024-03-22T00:51:37;35.57;32.72;40.31;;
66335;Laerm;53138;51.496;6.410;2024-03-22T00:51:48;34.20;32.02;36.56;;
66335;Laerm;53138;51.496;6.410;2024-03-22T00:51:58;33.55;31.89;35.02;;
66335;Laerm;53138;51.496;6.410;2024-03-22T00:52:08;33.83;32.30;35.76;;
66335;Laerm;53138;51.496;6.410;2024-03-22T00:52:19;33.54;31.94;35.15;;
66335;Laerm;53138;51.496;6.410;2024-03-22T00:52:29;33.68;32.07;35.66;;
66335;Laerm;53138;51.496;6.410;2024-03-22T00:52:39;33.69;32.24;35.20;;
66335;Laerm;53138;51.496;6.410;2024-03-22T00:52:52;33.74;32.25;35.23;;
66335;Laerm;53138;51.496;6.410;2024-03-22T00:53:04;33.83;31.80;35.82;;
66335;Laerm;53138;51.496;6.410;2024-03-22T00:53:16;33.85;31.98;36.29;;
66335;Laerm;53138;51.496;6.410;2024-03-22T00:53:26;34.81;32.55;41.20;;
66335;Laerm;53138;51.496;6.410;2024-03-22T00:53:37;34.15;32.48;36.88;;
66335;Laerm;53138;51.496;6.410;2024-03-22T00:53:47;34.08;32.22;36.26;;
66335;Laerm;53138;51.496;6.410;2024-03-22T00:53:57;34.00;32.41;35.73;;
66335;Laerm;53138;51.496;6.410;2024-03-22T00:54:07;33.94;31.85;37.05;;
66335;Laerm;53138;51.496;6.410;2024-03-22T00:54:18;34.31;31.58;36.78;;
66335;Laerm;53138;51.496;6.410;2024-03-22T00:54:30;34.27;32.70;36.58;;
66335;Laerm;53138;51.496;6.410;2024-03-22T00:54:40;33.98;31.82;35.84;;
66335;Laerm;53138;51.496;6.410;2024-03-22T00:54:50;33.92;32.45;35.80;;
66335;Laerm;53138;51.496;6.410;2024-03-22T00:55:00;34.37;32.49;36.26;;
66335;Laerm;53138;51.496;6.410;2024-03-22T00:55:11;35.55;33.20;38.72;;
66335;Laerm;53138;51.496;6.410;2024-03-22T00:55:21;38.87;34.41;44.66;;
66335;Laerm;53138;51.496;6.410;2024-03-22T00:55:32;45.14;35.46;54.75;;
66335;Laerm;53138;51.496;6.410;2024-03-22T00:55:42;44.83;34.26;53.52;;
66335;Laerm;53138;51.496;6.410;2024-03-22T00:55:53;34.09;32.47;35.87;;
66335;Laerm;53138;51.496;6.410;2024-03-22T00:56:04;33.76;32.00;35.76;;
66335;Laerm;53138;51.496;6.410;2024-03-22T00:56:14;33.95;32.53;35.66;;
66335;Laerm;53138;51.496;6.410;2024-03-22T00:56:24;37.51;32.51;45.70;;
66335;Laerm;53138;51.496;6.410;2024-03-22T00:56:34;43.60;37.11;50.38;;
66335;Laerm;53138;51.496;6.410;2024-03-22T00:56:45;38.28;35.05;42.01;;
66335;Laerm;53138;51.496;6.410;2024-03-22T00:56:55;36.57;33.66;40.00;;
66335;Laerm;53138;51.496;6.410;2024-03-22T00:57:06;35.61;33.23;39.44;;
66335;Laerm;53138;51.496;6.410;2024-03-22T00:57:16;35.29;32.61;38.75;;
66335;Laerm;53138;51.496;6.410;2024-03-22T00:57:27;36.84;33.44;40.91;;
66335;Laerm;53138;51.496;6.410;2024-03-22T00:57:37;38.89;34.95;42.89;;
66335;Laerm;53138;51.496;6.410;2024-03-22T00:57:48;44.43;36.88;48.83;;
66335;Laerm;53138;51.496;6.410;2024-03-22T00:57:58;39.34;34.21;46.64;;
66335;Laerm;53138;51.496;6.410;2024-03-22T00:58:08;34.93;32.92;37.42;;
66335;Laerm;53138;51.496;6.410;2024-03-22T00:58:18;34.29;32.39;35.98;;